createdAt,value
2017-04-30T00:00:01.098Z,53.14
2017-04-30T00:00:41.613Z,53.33
2017-04-30T00:01:22.136Z,53.05
2017-04-30T00:02:02.652Z,52.95
2017-04-30T00:02:43.178Z,53.33
2017-04-30T00:03:23.698Z,53.43
2017-04-30T00:04:04.212Z,53.24
2017-04-30T00:04:44.725Z,53.33
2017-04-30T00:05:25.253Z,53.33
2017-04-30T00:06:05.751Z,53.24
2017-04-30T00:06:46.280Z,53.33
2017-04-30T00:07:26.826Z,53.24
2017-04-30T00:08:07.361Z,53.24
2017-04-30T00:08:47.924Z,53.43
2017-04-30T00:09:28.457Z,53.33
2017-04-30T00:10:08.964Z,53.24
2017-04-30T00:10:49.456Z,53.72
2017-04-30T00:11:29.988Z,53.53
2017-04-30T00:12:10.527Z,53.43
2017-04-30T00:12:51.038Z,52.86
2017-04-30T00:13:31.567Z,52.86
2017-04-30T00:14:12.084Z,52.95
2017-04-30T00:14:52.625Z,52.76
2017-04-30T00:15:33.158Z,52.67
2017-04-30T00:16:13.669Z,52.67
2017-04-30T00:16:54.194Z,52.57
2017-04-30T00:17:34.721Z,52.67
2017-04-30T00:18:15.252Z,52.95
2017-04-30T00:18:55.766Z,53.05
2017-04-30T00:19:36.284Z,53.33
2017-04-30T00:20:16.791Z,52.86
2017-04-30T00:20:57.325Z,53.05
2017-04-30T00:21:37.835Z,52.95
2017-04-30T00:22:18.376Z,53.05
2017-04-30T00:22:58.901Z,53.14
2017-04-30T00:23:39.420Z,53.24
2017-04-30T00:24:19.937Z,53.43
2017-04-30T00:25:00.445Z,53.43
2017-04-30T00:25:40.970Z,53.43
2017-04-30T00:26:21.489Z,53.21
2017-04-30T00:27:02.010Z,53.41
2017-04-30T00:27:42.518Z,53.21
2017-04-30T00:28:23.042Z,53.14
2017-04-30T00:29:03.563Z,53.33
2017-04-30T00:29:44.084Z,53.43
2017-04-30T00:30:24.615Z,53.72
2017-04-30T00:31:05.131Z,53.78
2017-04-30T00:31:45.649Z,53.69
2017-04-30T00:32:26.165Z,53.97
2017-04-30T00:33:06.694Z,54.07
2017-04-30T00:33:47.217Z,53.88
2017-04-30T00:34:27.735Z,53.97
2017-04-30T00:35:08.258Z,53.97
2017-04-30T00:35:48.886Z,53.97
2017-04-30T00:36:29.396Z,53.97
2017-04-30T00:37:09.924Z,53.97
2017-04-30T00:37:50.534Z,54.07
2017-04-30T00:38:31.075Z,53.78
2017-04-30T00:39:11.609Z,53.97
2017-04-30T00:39:52.129Z,54.17
2017-04-30T00:40:32.637Z,54.36
2017-04-30T00:41:13.164Z,54.17
2017-04-30T00:41:53.675Z,54.17
2017-04-30T00:42:34.190Z,53.97
2017-04-30T00:43:14.720Z,53.88
2017-04-30T00:43:55.250Z,54.17
2017-04-30T00:44:35.751Z,53.78
2017-04-30T00:45:16.277Z,54.07
2017-04-30T00:45:56.813Z,53.78
2017-04-30T00:46:37.321Z,54.07
2017-04-30T00:47:17.830Z,53.97
2017-04-30T00:47:58.357Z,53.78
2017-04-30T00:48:38.890Z,54.17
2017-04-30T00:49:19.405Z,54.07
2017-04-30T00:49:59.914Z,53.97
2017-04-30T00:50:40.449Z,53.41
2017-04-30T00:51:20.952Z,54.07
2017-04-30T00:52:01.463Z,53.78
2017-04-30T00:52:41.988Z,53.97
2017-04-30T00:53:22.515Z,53.97
2017-04-30T00:54:03.034Z,53.97
2017-04-30T00:54:43.561Z,53.97
2017-04-30T00:55:24.083Z,53.97
2017-04-30T00:56:04.606Z,53.78
2017-04-30T00:56:45.131Z,54.07
2017-04-30T00:57:25.651Z,53.69
2017-04-30T00:58:06.173Z,54.26
2017-04-30T00:58:46.686Z,54.26
2017-04-30T00:59:27.204Z,53.88
2017-04-30T01:00:07.730Z,54.07
2017-04-30T01:00:48.260Z,54.07
2017-04-30T01:01:28.784Z,54.36
2017-04-30T01:02:09.319Z,53.97
2017-04-30T01:02:49.858Z,54.07
2017-04-30T01:03:30.374Z,53.97
2017-04-30T01:04:10.871Z,54.07
2017-04-30T01:04:51.389Z,53.88
2017-04-30T01:05:31.909Z,53.97
2017-04-30T01:06:12.421Z,53.97
2017-04-30T01:06:52.949Z,54.17
2017-04-30T01:07:33.485Z,54.07
2017-04-30T01:08:14.014Z,54.17
2017-04-30T01:08:54.527Z,54.17
2017-04-30T01:09:35.045Z,53.88
2017-04-30T01:10:15.585Z,54.36
2017-04-30T01:10:56.083Z,54.07
2017-04-30T01:11:36.617Z,54.45
2017-04-30T01:12:17.144Z,54.36
2017-04-30T01:12:57.663Z,54.36
2017-04-30T01:13:38.202Z,54.26
2017-04-30T01:14:18.718Z,54.26
2017-04-30T01:14:59.233Z,54.07
2017-04-30T01:15:39.755Z,53.97
2017-04-30T01:16:20.274Z,53.78
2017-04-30T01:17:00.800Z,53.97
2017-04-30T01:17:41.295Z,53.78
2017-04-30T01:18:21.807Z,53.88
2017-04-30T01:19:02.350Z,53.88
2017-04-30T01:19:42.871Z,53.69
2017-04-30T01:20:23.389Z,53.97
2017-04-30T01:21:03.977Z,53.69
2017-04-30T01:21:44.473Z,53.5
2017-04-30T01:22:24.984Z,53.59
2017-04-30T01:23:05.457Z,53.59
2017-04-30T01:23:45.940Z,53.59
2017-04-30T01:24:26.454Z,53.41
2017-04-30T01:25:06.985Z,53.88
2017-04-30T01:25:47.541Z,53.5
2017-04-30T01:26:28.066Z,53.12
2017-04-30T01:27:08.593Z,53.21
2017-04-30T01:27:49.103Z,53.5
2017-04-30T01:28:29.568Z,53.21
2017-04-30T01:29:10.082Z,53.21
2017-04-30T01:29:50.587Z,53.31
2017-04-30T01:30:31.097Z,53.41
2017-04-30T01:31:11.603Z,53.59
2017-04-30T01:31:52.103Z,53.97
2017-04-30T01:32:32.626Z,53.97
2017-04-30T01:33:13.136Z,53.59
2017-04-30T01:33:53.662Z,54.14
2017-04-30T01:34:34.186Z,54.07
2017-04-30T01:35:14.701Z,53.85
2017-04-30T01:35:55.237Z,53.59
2017-04-30T01:36:35.760Z,53.97
2017-04-30T01:37:16.290Z,53.69
2017-04-30T01:37:56.806Z,54.07
2017-04-30T01:38:37.310Z,53.97
2017-04-30T01:39:17.816Z,54.07
2017-04-30T01:39:58.341Z,53.97
2017-04-30T01:40:38.854Z,53.97
2017-04-30T01:41:19.373Z,54.04
2017-04-30T01:41:59.899Z,53.97
2017-04-30T01:42:40.422Z,53.95
2017-04-30T01:43:20.966Z,54.14
2017-04-30T01:44:01.485Z,54.14
2017-04-30T01:44:41.979Z,53.56
2017-04-30T01:45:22.508Z,53.85
2017-04-30T01:46:03.043Z,54.33
2017-04-30T01:46:43.569Z,54.14
2017-04-30T01:47:24.089Z,54.71
2017-04-30T01:48:04.606Z,54.52
2017-04-30T01:48:45.117Z,55.09
2017-04-30T01:49:25.653Z,55
2017-04-30T01:50:06.146Z,54.8
2017-04-30T01:50:46.649Z,54.61
2017-04-30T01:51:27.190Z,54.9
2017-04-30T01:52:07.698Z,55.09
2017-04-30T01:52:48.218Z,54.8
2017-04-30T01:53:28.745Z,55.28
2017-04-30T01:54:09.267Z,55.19
2017-04-30T01:54:49.777Z,55.09
2017-04-30T01:55:30.296Z,55.19
2017-04-30T01:56:10.824Z,55.19
2017-04-30T01:56:51.314Z,55.19
2017-04-30T01:57:31.837Z,55.09
2017-04-30T01:58:12.347Z,55.09
2017-04-30T01:58:52.872Z,55.19
2017-04-30T01:59:33.405Z,54.9
2017-04-30T02:00:13.902Z,54.9
2017-04-30T02:00:54.415Z,55.09
2017-04-30T02:01:34.930Z,54.8
2017-04-30T02:02:15.460Z,54.24
2017-04-30T02:02:55.976Z,53.76
2017-04-30T02:03:36.504Z,53.95
2017-04-30T02:04:17.019Z,54.43
2017-04-30T02:04:57.549Z,54.71
2017-04-30T02:05:38.074Z,54.24
2017-04-30T02:06:18.605Z,55.09
2017-04-30T02:06:59.115Z,55
2017-04-30T02:07:39.632Z,54.9
2017-04-30T02:08:20.164Z,54.24
2017-04-30T02:09:00.685Z,54.33
2017-04-30T02:09:41.203Z,54.24
2017-04-30T02:10:21.717Z,54.14
2017-04-30T02:11:02.249Z,54.33
2017-04-30T02:11:42.777Z,54.14
2017-04-30T02:12:23.294Z,54.04
2017-04-30T02:13:03.826Z,53.47
2017-04-30T02:13:44.359Z,53.66
2017-04-30T02:14:24.889Z,54.14
2017-04-30T02:15:05.410Z,53.85
2017-04-30T02:15:45.926Z,53.19
2017-04-30T02:16:26.451Z,53.09
2017-04-30T02:17:06.965Z,53.38
2017-04-30T02:17:47.512Z,53.19
2017-04-30T02:18:28.013Z,53.66
2017-04-30T02:19:08.530Z,53.66
2017-04-30T02:19:49.060Z,53.47
2017-04-30T02:20:29.591Z,53.95
2017-04-30T02:21:10.121Z,53.56
2017-04-30T02:21:50.634Z,53.85
2017-04-30T02:22:31.160Z,53.95
2017-04-30T02:23:11.680Z,53.95
2017-04-30T02:23:52.214Z,53.85
2017-04-30T02:24:32.722Z,53.95
2017-04-30T02:25:13.235Z,54.04
2017-04-30T02:25:53.760Z,53.85
2017-04-30T02:26:34.277Z,53.85
2017-04-30T02:27:14.791Z,54.04
2017-04-30T02:27:55.323Z,53.85
2017-04-30T02:28:35.847Z,53.95
2017-04-30T02:29:16.368Z,53.95
2017-04-30T02:29:56.898Z,54.14
2017-04-30T02:30:37.414Z,53.95
2017-04-30T02:31:17.923Z,53.95
2017-04-30T02:31:58.446Z,53.76
2017-04-30T02:32:38.979Z,53.76
2017-04-30T02:33:19.475Z,53.76
2017-04-30T02:33:59.954Z,53.85
2017-04-30T02:34:40.465Z,53.76
2017-04-30T02:35:20.977Z,53.56
2017-04-30T02:36:01.472Z,53.56
2017-04-30T02:36:41.987Z,53.76
2017-04-30T02:37:22.491Z,53.56
2017-04-30T02:38:02.984Z,53.66
2017-04-30T02:38:43.512Z,53.64
2017-04-30T02:39:23.998Z,54.11
2017-04-30T02:40:04.498Z,53.92
2017-04-30T02:40:45.026Z,53.73
2017-04-30T02:41:25.549Z,54.24
2017-04-30T02:42:06.068Z,54.43
2017-04-30T02:42:46.591Z,53.95
2017-04-30T02:43:27.111Z,53.95
2017-04-30T02:44:07.615Z,53.95
2017-04-30T02:44:48.110Z,53.95
2017-04-30T02:45:28.630Z,53.85
2017-04-30T02:46:09.160Z,54.33
2017-04-30T02:46:49.686Z,54.52
2017-04-30T02:47:30.212Z,53.76
2017-04-30T02:48:10.745Z,53.95
2017-04-30T02:48:51.306Z,54.04
2017-04-30T02:49:31.784Z,54.11
2017-04-30T02:50:12.304Z,54.97
2017-04-30T02:50:52.811Z,54.88
2017-04-30T02:51:33.348Z,55.16
2017-04-30T02:52:13.850Z,55.07
2017-04-30T02:52:54.380Z,55.07
2017-04-30T02:53:34.896Z,55.07
2017-04-30T02:54:15.422Z,54.97
2017-04-30T02:54:55.933Z,55.07
2017-04-30T02:55:36.437Z,55.63
2017-04-30T02:56:16.973Z,55.92
2017-04-30T02:56:57.505Z,56.11
2017-04-30T02:57:38.034Z,56.09
2017-04-30T02:58:18.549Z,56.85
2017-04-30T02:58:59.062Z,57.04
2017-04-30T02:59:39.601Z,57.32
2017-04-30T03:00:20.132Z,57.99
2017-04-30T03:01:00.651Z,58.28
2017-04-30T03:01:41.171Z,58.25
2017-04-30T03:02:21.684Z,58.44
2017-04-30T03:03:02.208Z,58.37
2017-04-30T03:03:42.735Z,57.89
2017-04-30T03:04:23.264Z,57.7
2017-04-30T03:05:03.775Z,57.7
2017-04-30T03:05:44.298Z,57.7
2017-04-30T03:06:24.820Z,57.42
2017-04-30T03:07:05.332Z,57.7
2017-04-30T03:07:45.867Z,58.56
2017-04-30T03:08:26.385Z,58.37
2017-04-30T03:09:06.905Z,57.99
2017-04-30T03:09:47.421Z,57.6
2017-04-30T03:10:27.935Z,57.32
2017-04-30T03:11:08.458Z,57.42
2017-04-30T03:11:48.985Z,57.13
2017-04-30T03:12:29.507Z,57.42
2017-04-30T03:13:10.021Z,56.85
2017-04-30T03:13:50.540Z,57.23
2017-04-30T03:14:31.064Z,57.51
2017-04-30T03:15:11.582Z,57.42
2017-04-30T03:15:52.099Z,57.42
2017-04-30T03:16:32.626Z,57.42
2017-04-30T03:17:13.139Z,57.13
2017-04-30T03:17:53.656Z,57.13
2017-04-30T03:18:34.171Z,56.85
2017-04-30T03:19:14.691Z,56.56
2017-04-30T03:19:55.217Z,57.32
2017-04-30T03:20:35.731Z,57.04
2017-04-30T03:21:16.271Z,56.94
2017-04-30T03:21:56.782Z,57.51
2017-04-30T03:22:37.314Z,57.13
2017-04-30T03:23:17.837Z,57.13
2017-04-30T03:23:58.364Z,56.94
2017-04-30T03:24:38.913Z,57.23
2017-04-30T03:25:19.427Z,57.23
2017-04-30T03:25:59.941Z,57.13
2017-04-30T03:26:40.451Z,56.65
2017-04-30T03:27:20.937Z,56.75
2017-04-30T03:28:01.404Z,56.65
2017-04-30T03:28:41.931Z,56.56
2017-04-30T03:29:22.459Z,56.85
2017-04-30T03:30:02.965Z,57.07
2017-04-30T03:30:43.451Z,56.87
2017-04-30T03:31:23.971Z,56.27
2017-04-30T03:32:04.492Z,56.85
2017-04-30T03:32:45.027Z,56.65
2017-04-30T03:33:25.545Z,56.87
2017-04-30T03:34:06.063Z,57.07
2017-04-30T03:34:46.583Z,56.59
2017-04-30T03:35:27.113Z,56.4
2017-04-30T03:36:07.623Z,56.21
2017-04-30T03:36:48.147Z,56.27
2017-04-30T03:37:28.661Z,56.75
2017-04-30T03:38:09.179Z,57.32
2017-04-30T03:38:49.697Z,57.6
2017-04-30T03:39:30.220Z,57.7
2017-04-30T03:40:10.750Z,57.89
2017-04-30T03:40:51.272Z,57.6
2017-04-30T03:41:31.787Z,57.8
2017-04-30T03:42:12.310Z,58.08
2017-04-30T03:42:52.831Z,57.99
2017-04-30T03:43:33.356Z,58.18
2017-04-30T03:44:13.862Z,57.42
2017-04-30T03:44:54.389Z,57.42
2017-04-30T03:45:34.924Z,57.13
2017-04-30T03:46:15.424Z,58.18
2017-04-30T03:46:55.961Z,58.34
2017-04-30T03:47:36.477Z,58.53
2017-04-30T03:48:16.990Z,58.34
2017-04-30T03:48:57.495Z,58.81
2017-04-30T03:49:38.013Z,59.1
2017-04-30T03:50:18.528Z,59.29
2017-04-30T03:50:59.047Z,59.39
2017-04-30T03:51:39.566Z,58.91
2017-04-30T03:52:20.086Z,59.48
2017-04-30T03:53:00.598Z,59.48
2017-04-30T03:53:41.124Z,59.77
2017-04-30T03:54:21.627Z,59.77
2017-04-30T03:55:02.153Z,59.48
2017-04-30T03:55:42.668Z,59.48
2017-04-30T03:56:23.158Z,59.39
2017-04-30T03:57:03.669Z,59.86
2017-04-30T03:57:44.174Z,59.48
2017-04-30T03:58:24.682Z,59.23
2017-04-30T03:59:05.274Z,59.32
2017-04-30T03:59:45.761Z,58.75
2017-04-30T04:00:26.273Z,58.65
2017-04-30T04:01:06.808Z,59.23
2017-04-30T04:01:47.337Z,58.75
2017-04-30T04:02:27.857Z,59.51
2017-04-30T04:03:08.373Z,58.84
2017-04-30T04:03:48.896Z,58.84
2017-04-30T04:04:29.417Z,58.84
2017-04-30T04:05:09.905Z,58.75
2017-04-30T04:05:50.415Z,58.65
2017-04-30T04:06:30.922Z,58.75
2017-04-30T04:07:11.445Z,58.47
2017-04-30T04:07:51.958Z,58.47
2017-04-30T04:08:32.473Z,58.37
2017-04-30T04:09:12.976Z,58.18
2017-04-30T04:09:53.502Z,57.99
2017-04-30T04:10:34.034Z,57.8
2017-04-30T04:11:14.533Z,57.99
2017-04-30T04:11:55.056Z,58.47
2017-04-30T04:12:35.574Z,58.47
2017-04-30T04:14:28.676Z,58.84
2017-04-30T04:15:09.192Z,58.72
2017-04-30T04:15:49.701Z,58.44
2017-04-30T04:16:30.212Z,58.53
2017-04-30T04:17:10.727Z,58.72
2017-04-30T04:17:51.255Z,58.65
2017-04-30T04:18:31.757Z,58.37
2017-04-30T04:19:12.274Z,58.56
2017-04-30T04:19:52.781Z,58.75
2017-04-30T04:20:33.289Z,58.37
2017-04-30T04:21:13.801Z,58.28
2017-04-30T04:21:54.326Z,57.89
2017-04-30T04:22:34.852Z,57.6
2017-04-30T04:23:15.379Z,57.89
2017-04-30T04:23:55.897Z,58.08
2017-04-30T04:24:36.404Z,57.8
2017-04-30T04:25:16.909Z,57.89
2017-04-30T04:25:57.425Z,57.6
2017-04-30T04:26:37.945Z,58.08
2017-04-30T04:27:18.461Z,58.47
2017-04-30T04:27:58.987Z,58.75
2017-04-30T04:28:39.507Z,58.56
2017-04-30T04:29:20.024Z,58.84
2017-04-30T04:30:00.565Z,58.56
2017-04-30T04:30:41.070Z,58.56
2017-04-30T04:31:21.584Z,58.56
2017-04-30T04:32:02.108Z,58.47
2017-04-30T04:32:42.622Z,57.8
2017-04-30T04:33:23.150Z,57.89
2017-04-30T04:34:03.665Z,57.51
2017-04-30T04:34:44.189Z,57.89
2017-04-30T04:35:24.723Z,57.99
2017-04-30T04:36:05.240Z,57.42
2017-04-30T04:36:45.752Z,57.42
2017-04-30T04:37:26.266Z,57.89
2017-04-30T04:38:06.778Z,58.28
2017-04-30T04:38:47.274Z,58.08
2017-04-30T04:39:27.807Z,58.08
2017-04-30T04:40:08.328Z,57.99
2017-04-30T04:40:48.843Z,57.7
2017-04-30T04:41:29.369Z,57.51
2017-04-30T04:42:09.889Z,57.23
2017-04-30T04:42:50.404Z,57.32
2017-04-30T04:43:30.914Z,56.85
2017-04-30T04:44:11.460Z,57.04
2017-04-30T04:44:51.981Z,57.23
2017-04-30T04:45:32.494Z,56.85
2017-04-30T04:46:13.009Z,56.65
2017-04-30T04:46:53.506Z,56.59
2017-04-30T04:47:34.027Z,56.87
2017-04-30T04:48:14.540Z,56.56
2017-04-30T04:48:55.070Z,56.85
2017-04-30T04:49:35.588Z,56.85
2017-04-30T04:50:16.116Z,56.59
2017-04-30T04:50:56.618Z,56.97
2017-04-30T04:51:37.261Z,57.26
2017-04-30T04:52:17.659Z,56.87
2017-04-30T04:52:58.192Z,56.49
2017-04-30T04:53:38.702Z,56.11
2017-04-30T04:54:19.220Z,56.02
2017-04-30T04:54:59.710Z,56.21
2017-04-30T04:55:40.236Z,55.83
2017-04-30T04:56:20.755Z,55.83
2017-04-30T04:57:01.217Z,55.73
2017-04-30T04:57:41.889Z,55.63
2017-04-30T04:58:22.209Z,56.11
2017-04-30T04:59:02.736Z,56.49
2017-04-30T04:59:43.264Z,56.59
2017-04-30T05:00:23.765Z,56.87
2017-04-30T05:01:04.266Z,56.78
2017-04-30T05:01:44.778Z,56.97
2017-04-30T05:02:25.289Z,56.87
2017-04-30T05:03:05.890Z,56.97
2017-04-30T05:03:46.385Z,56.75
2017-04-30T05:04:26.909Z,56.78
2017-04-30T05:05:07.424Z,56.65
2017-04-30T05:05:47.950Z,56.56
2017-04-30T05:06:28.487Z,57.23
2017-04-30T05:07:08.998Z,57.32
2017-04-30T05:07:49.518Z,57.04
2017-04-30T05:08:30.040Z,57.26
2017-04-30T05:09:10.565Z,56.87
2017-04-30T05:09:51.065Z,56.68
2017-04-30T05:10:31.643Z,57.04
2017-04-30T05:11:12.165Z,56.85
2017-04-30T05:11:52.693Z,57.32
2017-04-30T05:12:33.218Z,56.78
2017-04-30T05:13:13.761Z,57.07
2017-04-30T05:13:54.292Z,56.87
2017-04-30T05:14:34.776Z,56.87
2017-04-30T05:15:15.323Z,57.23
2017-04-30T05:15:55.834Z,57.99
2017-04-30T05:16:36.365Z,58.37
2017-04-30T05:17:16.882Z,58.47
2017-04-30T05:17:57.408Z,58.56
2017-04-30T05:18:37.919Z,58.56
2017-04-30T05:19:18.447Z,58.56
2017-04-30T05:19:59.259Z,58.47
2017-04-30T05:20:39.712Z,58.65
2017-04-30T05:21:20.221Z,58.47
2017-04-30T05:22:00.719Z,57.89
2017-04-30T05:22:41.232Z,57.99
2017-04-30T05:23:21.777Z,58.56
2017-04-30T05:24:02.291Z,58.37
2017-04-30T05:24:42.811Z,58.65
2017-04-30T05:25:23.322Z,58.47
2017-04-30T05:26:03.840Z,58.94
2017-04-30T05:26:44.344Z,58.47
2017-04-30T05:27:24.861Z,58.65
2017-04-30T05:28:05.373Z,58.47
2017-04-30T05:28:45.883Z,58.47
2017-04-30T05:29:26.388Z,58.75
2017-04-30T05:30:06.993Z,58.47
2017-04-30T05:30:47.510Z,58.56
2017-04-30T05:31:28.033Z,58.37
2017-04-30T05:32:08.542Z,58.11
2017-04-30T05:32:49.057Z,57.45
2017-04-30T05:33:29.560Z,57.26
2017-04-30T05:34:10.061Z,57.16
2017-04-30T05:34:50.563Z,57.07
2017-04-30T05:35:31.065Z,56.49
2017-04-30T05:36:11.559Z,56.68
2017-04-30T05:36:52.007Z,56.24
2017-04-30T05:37:32.513Z,55.19
2017-04-30T05:38:12.991Z,55.28
2017-04-30T05:38:53.476Z,55.19
2017-04-30T05:39:33.990Z,55.21
2017-04-30T05:40:14.528Z,53.88
2017-04-30T05:40:55.022Z,53.59
2017-04-30T05:41:35.545Z,53.02
2017-04-30T05:42:16.064Z,52.48
2017-04-30T05:42:56.572Z,51.9
2017-04-30T05:43:37.096Z,51.52
2017-04-30T05:44:17.627Z,51.23
2017-04-30T05:44:58.176Z,50.69
2017-04-30T05:45:38.662Z,49.93
2017-04-30T05:46:19.156Z,49.54
2017-04-30T05:46:59.686Z,48.71
2017-04-30T05:47:40.186Z,48.33
2017-04-30T05:48:20.706Z,48.42
2017-04-30T05:49:01.230Z,48.33
2017-04-30T05:49:41.756Z,48.33
2017-04-30T05:50:22.273Z,48.42
2017-04-30T05:51:02.789Z,48.33
2017-04-30T05:51:43.317Z,48.61
2017-04-30T05:52:23.826Z,48.23
2017-04-30T05:53:04.350Z,48.52
2017-04-30T05:53:44.859Z,48.33
2017-04-30T05:54:25.376Z,48.23
2017-04-30T05:55:05.906Z,48.04
2017-04-30T05:55:46.418Z,47.85
2017-04-30T05:56:26.951Z,48.49
2017-04-30T05:57:07.450Z,48.75
2017-04-30T05:57:47.955Z,49.23
2017-04-30T05:58:28.482Z,49.8
2017-04-30T05:59:09.002Z,49.62
2017-04-30T05:59:49.521Z,49.62
2017-04-30T06:00:30.042Z,49.9
2017-04-30T06:01:10.576Z,50.09
2017-04-30T06:01:51.081Z,49.9
2017-04-30T06:02:31.575Z,50.18
2017-04-30T06:03:12.090Z,49.9
2017-04-30T06:03:52.600Z,49.71
2017-04-30T06:04:33.111Z,49.93
2017-04-30T06:05:13.727Z,49.44
2017-04-30T06:05:54.248Z,49.26
2017-04-30T06:06:34.764Z,48.88
2017-04-30T06:07:15.289Z,49.16
2017-04-30T06:07:55.798Z,49.07
2017-04-30T06:08:36.323Z,48.78
2017-04-30T06:09:16.850Z,49.64
2017-04-30T06:09:57.367Z,49.16
2017-04-30T06:10:37.886Z,49.73
2017-04-30T06:11:18.405Z,49.62
2017-04-30T06:11:58.957Z,49.8
2017-04-30T06:12:39.416Z,49.9
2017-04-30T06:13:19.950Z,50.12
2017-04-30T06:14:00.560Z,49.62
2017-04-30T06:14:41.104Z,49.83
2017-04-30T06:15:21.604Z,49.93
2017-04-30T06:16:02.120Z,49.99
2017-04-30T06:16:42.634Z,49.93
2017-04-30T06:17:23.157Z,49.8
2017-04-30T06:18:03.665Z,49.9
2017-04-30T06:18:44.167Z,49.9
2017-04-30T06:19:24.648Z,50.47
2017-04-30T06:20:05.157Z,50.67
2017-04-30T06:20:45.665Z,50.38
2017-04-30T06:21:26.204Z,50.67
2017-04-30T06:22:06.685Z,50.67
2017-04-30T06:22:47.207Z,50.38
2017-04-30T06:23:27.742Z,51.04
2017-04-30T06:24:08.276Z,51.23
2017-04-30T06:24:48.795Z,51.23
2017-04-30T06:25:29.309Z,51.43
2017-04-30T06:26:09.831Z,51.23
2017-04-30T06:26:50.361Z,51.23
2017-04-30T06:27:30.900Z,51.23
2017-04-30T06:28:11.432Z,51.71
2017-04-30T06:28:51.916Z,51.33
2017-04-30T06:29:32.401Z,52
2017-04-30T06:30:12.913Z,51.33
2017-04-30T06:30:53.425Z,51.43
2017-04-30T06:31:33.954Z,51.33
2017-04-30T06:32:14.473Z,51.52
2017-04-30T06:32:54.990Z,51.81
2017-04-30T06:33:35.463Z,52.19
2017-04-30T06:34:16.014Z,51.52
2017-04-30T06:34:56.461Z,51.64
2017-04-30T06:35:36.984Z,50.78
2017-04-30T06:36:17.504Z,50.98
2017-04-30T06:36:58.024Z,50.78
2017-04-30T06:37:38.544Z,50.78
2017-04-30T06:38:19.093Z,50.71
2017-04-30T06:38:59.576Z,50.43
2017-04-30T06:39:40.093Z,50.14
2017-04-30T06:40:20.621Z,50.04
2017-04-30T06:41:01.130Z,49.66
2017-04-30T06:41:41.669Z,50.14
2017-04-30T06:42:22.180Z,49.95
2017-04-30T06:43:02.675Z,49.28
2017-04-30T06:43:43.211Z,48.83
2017-04-30T06:44:23.808Z,48.73
2017-04-30T06:45:04.357Z,48.64
2017-04-30T06:45:44.864Z,48.35
2017-04-30T06:46:25.400Z,48.57
2017-04-30T06:47:05.921Z,48.09
2017-04-30T06:47:46.431Z,48.09
2017-04-30T06:48:26.957Z,47.03
2017-04-30T06:49:07.458Z,46.67
2017-04-30T06:49:47.983Z,46.96
2017-04-30T06:50:28.508Z,46.58
2017-04-30T06:51:09.006Z,46.67
2017-04-30T06:51:49.512Z,46.77
2017-04-30T06:52:30.010Z,46.58
2017-04-30T06:53:10.517Z,46.1
2017-04-30T06:53:51.026Z,45.91
2017-04-30T06:54:31.553Z,45.81
2017-04-30T06:55:12.063Z,45.89
2017-04-30T06:55:52.578Z,46.2
2017-04-30T06:56:33.089Z,45.81
2017-04-30T06:57:13.604Z,44.86
2017-04-30T06:57:54.130Z,44.88
2017-04-30T06:58:34.648Z,44.69
2017-04-30T06:59:15.172Z,44.5
2017-04-30T06:59:55.708Z,44.31
2017-04-30T07:00:36.231Z,44.59
2017-04-30T07:01:16.752Z,44.31
2017-04-30T07:01:57.271Z,44.21
2017-04-30T07:02:37.796Z,44.31
2017-04-30T07:03:18.314Z,44.4
2017-04-30T07:03:58.853Z,44.69
2017-04-30T07:04:39.390Z,44.69
2017-04-30T07:05:19.931Z,44.43
2017-04-30T07:06:00.448Z,44.04
2017-04-30T07:06:40.971Z,44.13
2017-04-30T07:07:21.493Z,43.66
2017-04-30T07:08:02.059Z,43.47
2017-04-30T07:08:42.546Z,43.56
2017-04-30T07:09:23.067Z,43.92
2017-04-30T07:10:03.581Z,44.12
2017-04-30T07:10:44.105Z,44.21
2017-04-30T07:11:24.622Z,44.04
2017-04-30T07:12:05.145Z,43.66
2017-04-30T07:12:45.652Z,43.18
2017-04-30T07:13:26.204Z,43.18
2017-04-30T07:14:06.726Z,42.22
2017-04-30T07:14:47.261Z,42.32
2017-04-30T07:15:27.797Z,42.6
2017-04-30T07:16:08.292Z,42.9
2017-04-30T07:16:48.819Z,42.8
2017-04-30T07:17:29.343Z,43.18
2017-04-30T07:18:09.858Z,42.8
2017-04-30T07:18:50.379Z,42.72
2017-04-30T07:19:30.911Z,42.63
2017-04-30T07:20:11.407Z,42.22
2017-04-30T07:20:51.897Z,42.8
2017-04-30T07:21:32.426Z,42.99
2017-04-30T07:22:12.902Z,43.18
2017-04-30T07:22:53.388Z,43.1
2017-04-30T07:23:33.896Z,42.8
2017-04-30T07:24:14.457Z,42.63
2017-04-30T07:24:54.926Z,42.72
2017-04-30T07:25:35.434Z,42.34
2017-04-30T07:26:15.935Z,41.96
2017-04-30T07:26:56.406Z,41.86
2017-04-30T07:27:36.882Z,41.86
2017-04-30T07:28:17.367Z,41.77
2017-04-30T07:28:57.859Z,41.67
2017-04-30T07:29:38.369Z,41.48
2017-04-30T07:30:18.844Z,41.57
2017-04-30T07:30:59.341Z,41.38
2017-04-30T07:31:39.829Z,41.57
2017-04-30T07:32:20.340Z,40.9
2017-04-30T07:33:00.804Z,40.71
2017-04-30T07:33:41.367Z,40.04
2017-04-30T07:34:21.825Z,39.45
2017-04-30T07:35:02.338Z,39.75
2017-04-30T07:35:42.811Z,39.47
2017-04-30T07:36:23.405Z,39.92
2017-04-30T07:37:03.942Z,39.75
2017-04-30T07:37:44.434Z,39.92
2017-04-30T07:38:25.028Z,39.73
2017-04-30T07:39:05.473Z,39.64
2017-04-30T07:39:45.960Z,40.12
2017-04-30T07:40:26.486Z,39.92
2017-04-30T07:41:06.990Z,40.41
2017-04-30T07:41:47.574Z,40.02
2017-04-30T07:42:28.036Z,40.21
2017-04-30T07:43:08.566Z,40.5
2017-04-30T07:43:49.046Z,40.98
2017-04-30T07:44:29.573Z,40.69
2017-04-30T07:45:10.032Z,40.41
2017-04-30T07:45:50.515Z,40.31
2017-04-30T07:46:31.023Z,40.41
2017-04-30T07:47:11.542Z,40.69
2017-04-30T07:47:52.703Z,40.02
2017-04-30T07:48:33.208Z,39.54
2017-04-30T07:49:13.710Z,40.02
2017-04-30T07:49:54.139Z,39.83
2017-04-30T07:50:34.667Z,39.56
2017-04-30T07:51:15.194Z,39.64
2017-04-30T07:51:55.658Z,39.37
2017-04-30T07:52:36.178Z,39.37
2017-04-30T07:53:16.690Z,39.18
2017-04-30T07:53:57.203Z,39.45
2017-04-30T07:54:37.708Z,39.94
2017-04-30T07:55:18.236Z,40.12
2017-04-30T07:55:58.760Z,39.94
2017-04-30T07:56:39.524Z,39.64
2017-04-30T07:57:20.303Z,39.54
2017-04-30T07:58:00.838Z,39.47
2017-04-30T07:58:41.451Z,40.23
2017-04-30T07:59:21.952Z,39.54
2017-04-30T08:00:02.484Z,39.85
2017-04-30T08:00:42.985Z,39.45
2017-04-30T08:01:23.493Z,40.33
2017-04-30T08:02:04.016Z,39.56
2017-04-30T08:02:44.493Z,39.94
2017-04-30T08:03:24.970Z,39.65
2017-04-30T08:04:05.506Z,39.94
2017-04-30T08:04:46.102Z,39.65
2017-04-30T08:05:27.065Z,40.41
2017-04-30T08:06:07.276Z,40.69
2017-04-30T08:06:48.016Z,40.98
2017-04-30T08:07:28.754Z,41.74
2017-04-30T08:08:09.214Z,41.84
2017-04-30T08:08:49.723Z,41.55
2017-04-30T08:09:30.221Z,41.55
2017-04-30T08:10:10.976Z,41.65
2017-04-30T08:10:51.595Z,41.63
2017-04-30T08:11:32.235Z,42.4
2017-04-30T08:12:12.758Z,42.01
2017-04-30T08:12:53.355Z,42.41
2017-04-30T08:13:33.805Z,42.32
2017-04-30T08:14:14.304Z,41.63
2017-04-30T08:14:54.792Z,41.91
2017-04-30T08:15:35.343Z,42.4
2017-04-30T08:16:15.923Z,42.49
2017-04-30T08:16:56.527Z,42.49
2017-04-30T08:17:37.269Z,42.41
2017-04-30T08:18:17.757Z,42.58
2017-04-30T08:18:58.235Z,42.68
2017-04-30T08:19:38.911Z,42.49
2017-04-30T08:20:19.272Z,42.41
2017-04-30T08:20:59.782Z,42.8
2017-04-30T08:21:40.408Z,42.03
2017-04-30T08:22:20.816Z,42.32
2017-04-30T08:23:01.382Z,42.51
2017-04-30T08:23:41.893Z,42.41
2017-04-30T08:24:22.750Z,42.13
2017-04-30T08:25:03.339Z,42.32
2017-04-30T08:25:43.799Z,42.51
2017-04-30T08:26:24.293Z,42.7
2017-04-30T08:27:04.835Z,42.13
2017-04-30T08:27:45.347Z,42.13
2017-04-30T08:28:25.817Z,41.84
2017-04-30T08:29:06.399Z,41.94
2017-04-30T08:29:47.206Z,41.74
2017-04-30T08:30:27.657Z,42.2
2017-04-30T08:31:08.081Z,42.2
2017-04-30T08:31:48.509Z,42.3
2017-04-30T08:32:29.271Z,42.3
2017-04-30T08:33:09.637Z,42.6
2017-04-30T08:33:50.164Z,42.01
2017-04-30T08:34:30.641Z,41.91
2017-04-30T08:35:11.165Z,42.2
2017-04-30T08:35:52.805Z,42.13
2017-04-30T08:36:33.148Z,42.6
2017-04-30T08:37:13.724Z,42.58
2017-04-30T08:37:54.225Z,42.68
2017-04-30T08:38:34.738Z,42.68
2017-04-30T08:39:15.214Z,42.49
2017-04-30T08:39:55.738Z,42.97
2017-04-30T08:40:36.311Z,42.4
2017-04-30T08:41:17.105Z,42.58
2017-04-30T08:41:57.800Z,42.58
2017-04-30T08:42:38.343Z,42.68
2017-04-30T08:43:18.814Z,42.58
2017-04-30T08:43:59.348Z,42.87